Aeroporto :
LOGIN :

Iscrizione | Disclaimer

   EN    FR    IT 

 










Sommario :    VFR   VFR Marginale   IFR   IFR Intensivo   IFR Molto Intensivo
Visibilità : 
Base nubi : 
>= 8 km
>= 3000ft
5 / 8 km
1000 / 3000 ft
1500m / 5 km
500 / 1000 ft
800 / 1500m
200 / 500 ft
< 800m
< 200 ft
Simboli :   Temporali  Nebbia  Neve Forte  Precipitazioni Forti  Vento > 20 kt
SIGMETs :   Varie  Temporali  Ghiacco  Turbolenza  Onda orograficha  Ceneri Vulcaniche







- Altitudine del aeroporto : 616 ft
- Codice IATA : PUF
- Carte del aeroporto


LFBP - Pau

ULTIMO METAR :
  • 201130Z AUTO VRB02KT 7000 NSC 15/04 Q1023 NOSIG

METARs OBSOLETI :
  • 201100Z AUTO VRB02KT 9000 NSC 14/04 Q1023 NOSIG
  • 201030Z AUTO 00000KT 9000 NSC 14/05 Q1023 NOSIG
  • 201000Z AUTO VRB02KT CAVOK 12/05 Q1022 NOSIG
  • 200930Z AUTO 13003KT CAVOK 11/05 Q1022 NOSIG
  • 200900Z AUTO 13004KT CAVOK 09/03 Q1022 NOSIG

TAF TAF LFBP
Valido dal 20 a 12 ore il 21 a 12 ore UTC


201100Z 2012/2112 VRB02KT CAVOK
BECMG 2012/2014 06008KT
BECMG 2020/2022 12005KT
PROB30
TEMPO 2100/2107 4000 BR NSC
Nessun NOTAM noto per questo aeroporto.



MetMap, La meteo Aeronautica in un colpo d'occhio ! - Copyright ORBIFLY Dicembre 2007 - Disclaimer

ORBIFLY MET'MAP TEAM :

Programmazione e sviluppo : Alexandra Zaïnal
Concezione e sviluppo : Baudouin d'Aumeries
Co-Programmazione e sviluppo : Marc-Olivier Méhu
Supporto tecnico e logistico : Manuel Goepfert
Aiuto per la traduzione : Arnaldo La Scala

Contatto : metmap@orbifly.com




FONTI E CREDITI :

   NOAA